Nome の空港の天気 - METARとTAF

Nome, Nome Airport ( PAOM / OME ) - アメリカ アラスカ州Nome
飛行場実況気象(Metar)
観測時間04/21 06:53 AKDT (04/21 14:53 UTC)
風向・風速北北東 2m/s
視程10km以上
天気現象
なし
気温-17.8℃
湿度72%
気圧1008.8hPa
METARPAOM 211453Z AUTO 02004KT 10SM CLR M18/M22 A2979 RMK AO2 SLP088 T11781217 58007 TSNO
過去の天気等 Google飛行場航空写真 Wunderground天気予報

過去48時間のMETAR

飛行場予報(TAF)
発表時間: 4/21 03:20 AKDT (4/21 11:20 UTC)
予報対象時間: 21日4時 AKDT ~ 22日4時 AKDT
風向・風速北北東 2m/s
視程10km以上
なし
21日14時 AKDT から
風向・風速北北西 8m/s 瞬間風速 10m/s
視程10km以上
全天の4割程度の雲 雲底高度 1070m
全天の8割程度の雲 雲底高度 2740m
21日23時 AKDT から
風向・風速北北西 7m/s 瞬間風速 11m/s
視程6440m
天気現象弱い雪
全天の8割程度の雲 雲底高度 460m
22日2時 AKDT から
風向・風速北北西 8m/s 瞬間風速 12m/s
視程3220m
天気現象弱い雪
全天の8割程度の雲 雲底高度 460m
PAOM 211120Z 2112/2212 02004KT P6SM SKC
FM212200 33015G20KT P6SM SCT035 BKN090
FM220700 34014G21KT 4SM -SN BKN015
FM221000 33016G23KT 2SM -SN BKN015